Terminal Aerodrome Forecast
Issued by NWS

Home | Current Version | Previous Version | Text Only | Print | Product List | Glossary Off
Versions: 1 2 3 4 5 6 7 8 9 10 11 12 13 14 15 16 17 18 19 20 21 22 23 24 25 26

000
FTUS45 KGGW 222100 AAA
TAFGDV
TAF AMD
KGDV 222114Z 2221/2318 VRB05KT P6SM SCT070
      TEMPO 2222/2302 P6SM -TSRA BKN050CB
     FM230300 09008KT P6SM BKN080
     FM231500 11012KT P6SM SCT100
      AMD LTD TO CLD VIS AND WIND=

USA.gov is the U.S. government's official web portal to all federal, state and local government web resources and services.